sensor_id;sensor_type;location;lat;lon;timestamp;P1;durP1;ratioP1;P2;durP2;ratioP2
25721;SDS011;13578;53.450;15.496;2023-05-10T00:00:01;3.88;;;2.47;;
25721;SDS011;13578;53.450;15.496;2023-05-10T00:03:04;6.00;;;3.40;;
25721;SDS011;13578;53.450;15.496;2023-05-10T00:06:05;4.07;;;2.53;;
25721;SDS011;13578;53.450;15.496;2023-05-10T00:09:06;4.55;;;3.00;;
25721;SDS011;13578;53.450;15.496;2023-05-10T00:12:06;4.90;;;2.70;;
25721;SDS011;13578;53.450;15.496;2023-05-10T00:15:07;5.32;;;3.08;;
25721;SDS011;13578;53.450;15.496;2023-05-10T00:18:08;5.70;;;3.08;;
25721;SDS011;13578;53.450;15.496;2023-05-10T00:21:09;7.88;;;3.60;;
25721;SDS011;13578;53.450;15.496;2023-05-10T00:24:10;5.00;;;2.80;;
25721;SDS011;13578;53.450;15.496;2023-05-10T00:27:11;9.90;;;3.13;;
25721;SDS011;13578;53.450;15.496;2023-05-10T00:30:11;4.13;;;3.10;;
25721;SDS011;13578;53.450;15.496;2023-05-10T00:33:12;8.45;;;3.58;;
25721;SDS011;13578;53.450;15.496;2023-05-10T00:36:13;7.35;;;3.10;;
25721;SDS011;13578;53.450;15.496;2023-05-10T00:39:13;8.18;;;2.78;;
25721;SDS011;13578;53.450;15.496;2023-05-10T00:42:14;5.32;;;2.55;;
25721;SDS011;13578;53.450;15.496;2023-05-10T00:45:15;8.13;;;3.00;;
25721;SDS011;13578;53.450;15.496;2023-05-10T00:48:16;9.65;;;3.15;;
25721;SDS011;13578;53.450;15.496;2023-05-10T00:51:17;4.95;;;2.97;;
25721;SDS011;13578;53.450;15.496;2023-05-10T00:54:18;6.32;;;2.85;;
25721;SDS011;13578;53.450;15.496;2023-05-10T00:57:18;3.88;;;2.80;;
25721;SDS011;13578;53.450;15.496;2023-05-10T01:00:19;7.65;;;2.70;;
25721;SDS011;13578;53.450;15.496;2023-05-10T01:03:20;7.47;;;3.03;;
25721;SDS011;13578;53.450;15.496;2023-05-10T01:06:21;4.68;;;3.03;;
25721;SDS011;13578;53.450;15.496;2023-05-10T01:09:22;6.15;;;3.30;;
25721;SDS011;13578;53.450;15.496;2023-05-10T01:12:23;6.22;;;3.00;;
25721;SDS011;13578;53.450;15.496;2023-05-10T01:15:24;5.43;;;3.28;;
25721;SDS011;13578;53.450;15.496;2023-05-10T01:18:25;7.97;;;3.30;;
25721;SDS011;13578;53.450;15.496;2023-05-10T01:21:33;5.30;;;2.90;;
25721;SDS011;13578;53.450;15.496;2023-05-10T01:35:09;5.50;;;2.85;;
25721;SDS011;13578;53.450;15.496;2023-05-10T01:42:04;6.97;;;3.45;;
25721;SDS011;13578;53.450;15.496;2023-05-10T01:45:21;7.68;;;3.50;;
25721;SDS011;13578;53.450;15.496;2023-05-10T01:48:51;7.78;;;4.35;;
25721;SDS011;13578;53.450;15.496;2023-05-10T01:51:55;5.90;;;3.50;;
25721;SDS011;13578;53.450;15.496;2023-05-10T01:55:08;6.97;;;3.17;;
25721;SDS011;13578;53.450;15.496;2023-05-10T01:58:15;6.72;;;2.78;;
25721;SDS011;13578;53.450;15.496;2023-05-10T02:01:21;29.08;;;5.15;;
25721;SDS011;13578;53.450;15.496;2023-05-10T02:04:22;7.50;;;3.63;;
25721;SDS011;13578;53.450;15.496;2023-05-10T02:07:24;5.50;;;3.88;;
25721;SDS011;13578;53.450;15.496;2023-05-10T02:10:28;10.38;;;4.18;;
25721;SDS011;13578;53.450;15.496;2023-05-10T02:13:30;5.47;;;3.10;;
25721;SDS011;13578;53.450;15.496;2023-05-10T02:16:32;8.15;;;3.58;;
25721;SDS011;13578;53.450;15.496;2023-05-10T02:19:36;5.50;;;3.58;;
25721;SDS011;13578;53.450;15.496;2023-05-10T02:22:39;7.88;;;3.80;;
25721;SDS011;13578;53.450;15.496;2023-05-10T02:25:42;7.30;;;3.38;;
25721;SDS011;13578;53.450;15.496;2023-05-10T02:28:44;6.18;;;3.70;;
25721;SDS011;13578;53.450;15.496;2023-05-10T02:31:45;7.93;;;4.05;;
25721;SDS011;13578;53.450;15.496;2023-05-10T02:34:47;6.60;;;3.33;;
25721;SDS011;13578;53.450;15.496;2023-05-10T02:37:51;6.55;;;3.63;;
25721;SDS011;13578;53.450;15.496;2023-05-10T02:40:53;11.77;;;4.47;;
25721;SDS011;13578;53.450;15.496;2023-05-10T02:43:56;6.65;;;3.40;;
25721;SDS011;13578;53.450;15.496;2023-05-10T02:46:59;7.22;;;3.33;;
25721;SDS011;13578;53.450;15.496;2023-05-10T02:50:00;7.82;;;4.25;;
25721;SDS011;13578;53.450;15.496;2023-05-10T02:53:02;6.07;;;3.97;;
25721;SDS011;13578;53.450;15.496;2023-05-10T02:56:15;9.70;;;3.83;;
25721;SDS011;13578;53.450;15.496;2023-05-10T02:59:23;7.28;;;3.67;;
25721;SDS011;13578;53.450;15.496;2023-05-10T03:02:24;7.72;;;4.80;;
25721;SDS011;13578;53.450;15.496;2023-05-10T03:05:25;11.95;;;3.58;;
25721;SDS011;13578;53.450;15.496;2023-05-10T03:08:26;10.13;;;3.95;;
25721;SDS011;13578;53.450;15.496;2023-05-10T03:15:11;10.68;;;4.85;;
25721;SDS011;13578;53.450;15.496;2023-05-10T03:21:59;8.23;;;3.50;;
25721;SDS011;13578;53.450;15.496;2023-05-10T03:25:04;12.05;;;4.82;;
25721;SDS011;13578;53.450;15.496;2023-05-10T03:28:08;12.02;;;3.92;;
25721;SDS011;13578;53.450;15.496;2023-05-10T03:31:09;10.60;;;4.50;;
25721;SDS011;13578;53.450;15.496;2023-05-10T03:34:10;10.60;;;4.53;;
25721;SDS011;13578;53.450;15.496;2023-05-10T03:37:11;19.52;;;4.25;;
25721;SDS011;13578;53.450;15.496;2023-05-10T03:40:12;7.22;;;3.78;;
25721;SDS011;13578;53.450;15.496;2023-05-10T03:43:13;10.32;;;3.45;;
25721;SDS011;13578;53.450;15.496;2023-05-10T03:46:13;13.10;;;3.83;;
25721;SDS011;13578;53.450;15.496;2023-05-10T03:49:14;7.05;;;3.63;;
25721;SDS011;13578;53.450;15.496;2023-05-10T03:52:15;10.13;;;4.32;;
25721;SDS011;13578;53.450;15.496;2023-05-10T03:55:15;8.38;;;3.47;;
25721;SDS011;13578;53.450;15.496;2023-05-10T03:58:16;7.00;;;3.40;;
25721;SDS011;13578;53.450;15.496;2023-05-10T04:01:18;8.13;;;3.53;;
25721;SDS011;13578;53.450;15.496;2023-05-10T04:04:18;5.90;;;3.75;;
25721;SDS011;13578;53.450;15.496;2023-05-10T04:07:20;7.22;;;3.50;;
25721;SDS011;13578;53.450;15.496;2023-05-10T04:10:21;5.43;;;2.97;;
25721;SDS011;13578;53.450;15.496;2023-05-10T04:13:22;10.55;;;3.63;;
25721;SDS011;13578;53.450;15.496;2023-05-10T04:16:23;7.18;;;3.38;;
25721;SDS011;13578;53.450;15.496;2023-05-10T04:19:23;8.43;;;3.92;;
25721;SDS011;13578;53.450;15.496;2023-05-10T04:22:24;12.05;;;3.70;;
25721;SDS011;13578;53.450;15.496;2023-05-10T04:25:25;8.25;;;3.70;;
25721;SDS011;13578;53.450;15.496;2023-05-10T04:28:25;8.93;;;3.40;;
25721;SDS011;13578;53.450;15.496;2023-05-10T04:31:27;5.13;;;3.00;;
25721;SDS011;13578;53.450;15.496;2023-05-10T04:34:28;12.02;;;3.40;;
25721;SDS011;13578;53.450;15.496;2023-05-10T04:37:28;7.43;;;3.17;;
25721;SDS011;13578;53.450;15.496;2023-05-10T04:40:29;7.50;;;4.05;;
25721;SDS011;13578;53.450;15.496;2023-05-10T04:43:29;6.63;;;3.20;;
25721;SDS011;13578;53.450;15.496;2023-05-10T04:46:30;7.20;;;3.28;;
25721;SDS011;13578;53.450;15.496;2023-05-10T04:49:31;9.38;;;3.88;;
25721;SDS011;13578;53.450;15.496;2023-05-10T04:52:32;6.30;;;3.20;;
25721;SDS011;13578;53.450;15.496;2023-05-10T04:55:33;4.30;;;2.88;;
25721;SDS011;13578;53.450;15.496;2023-05-10T04:58:33;11.20;;;3.58;;
25721;SDS011;13578;53.450;15.496;2023-05-10T05:01:34;9.75;;;3.65;;
25721;SDS011;13578;53.450;15.496;2023-05-10T05:04:34;7.90;;;3.30;;
25721;SDS011;13578;53.450;15.496;2023-05-10T05:07:35;11.75;;;3.80;;
25721;SDS011;13578;53.450;15.496;2023-05-10T05:10:36;6.82;;;2.85;;
25721;SDS011;13578;53.450;15.496;2023-05-10T05:13:37;13.32;;;2.92;;
25721;SDS011;13578;53.450;15.496;2023-05-10T05:16:37;8.88;;;2.67;;
25721;SDS011;13578;53.450;15.496;2023-05-10T05:19:38;6.38;;;3.20;;
25721;SDS011;13578;53.450;15.496;2023-05-10T05:22:39;6.18;;;3.47;;
25721;SDS011;13578;53.450;15.496;2023-05-10T05:25:39;4.60;;;2.67;;
25721;SDS011;13578;53.450;15.496;2023-05-10T05:28:40;11.65;;;3.85;;
25721;SDS011;13578;53.450;15.496;2023-05-10T05:31:41;7.70;;;3.22;;
25721;SDS011;13578;53.450;15.496;2023-05-10T05:34:41;5.90;;;3.10;;
25721;SDS011;13578;53.450;15.496;2023-05-10T05:37:44;8.20;;;3.03;;
25721;SDS011;13578;53.450;15.496;2023-05-10T05:40:44;6.03;;;2.95;;
25721;SDS011;13578;53.450;15.496;2023-05-10T05:43:45;4.22;;;2.88;;
25721;SDS011;13578;53.450;15.496;2023-05-10T05:46:46;4.30;;;2.30;;
25721;SDS011;13578;53.450;15.496;2023-05-10T05:49:47;7.53;;;2.83;;
25721;SDS011;13578;53.450;15.496;2023-05-10T05:52:47;7.13;;;3.10;;
25721;SDS011;13578;53.450;15.496;2023-05-10T05:55:52;7.53;;;3.20;;
25721;SDS011;13578;53.450;15.496;2023-05-10T05:58:54;8.18;;;2.90;;
25721;SDS011;13578;53.450;15.496;2023-05-10T06:01:54;4.25;;;2.28;;
25721;SDS011;13578;53.450;15.496;2023-05-10T06:04:55;9.75;;;2.58;;
25721;SDS011;13578;53.450;15.496;2023-05-10T06:07:56;4.75;;;2.33;;
25721;SDS011;13578;53.450;15.496;2023-05-10T06:10:56;8.43;;;2.47;;
25721;SDS011;13578;53.450;15.496;2023-05-10T06:13:57;6.03;;;3.10;;
25721;SDS011;13578;53.450;15.496;2023-05-10T06:16:59;8.15;;;2.45;;
25721;SDS011;13578;53.450;15.496;2023-05-10T06:20:00;5.85;;;2.53;;
25721;SDS011;13578;53.450;15.496;2023-05-10T06:23:00;6.75;;;3.33;;
25721;SDS011;13578;53.450;15.496;2023-05-10T06:26:01;5.68;;;2.33;;
25721;SDS011;13578;53.450;15.496;2023-05-10T06:29:02;6.07;;;2.50;;
25721;SDS011;13578;53.450;15.496;2023-05-10T06:32:02;6.00;;;2.45;;
25721;SDS011;13578;53.450;15.496;2023-05-10T06:35:03;9.18;;;2.53;;
25721;SDS011;13578;53.450;15.496;2023-05-10T06:38:04;4.88;;;2.08;;
25721;SDS011;13578;53.450;15.496;2023-05-10T06:41:05;8.80;;;2.08;;
25721;SDS011;13578;53.450;15.496;2023-05-10T06:44:05;6.85;;;2.20;;
25721;SDS011;13578;53.450;15.496;2023-05-10T06:47:06;3.60;;;2.03;;
25721;SDS011;13578;53.450;15.496;2023-05-10T06:50:07;3.17;;;1.90;;
25721;SDS011;13578;53.450;15.496;2023-05-10T06:53:09;5.43;;;2.22;;
25721;SDS011;13578;53.450;15.496;2023-05-10T06:56:10;9.32;;;2.42;;
25721;SDS011;13578;53.450;15.496;2023-05-10T06:59:10;5.30;;;2.35;;
25721;SDS011;13578;53.450;15.496;2023-05-10T07:02:11;4.55;;;1.73;;
25721;SDS011;13578;53.450;15.496;2023-05-10T07:05:11;8.32;;;1.83;;
25721;SDS011;13578;53.450;15.496;2023-05-10T07:08:12;5.20;;;1.98;;
25721;SDS011;13578;53.450;15.496;2023-05-10T07:11:13;4.97;;;1.50;;
25721;SDS011;13578;53.450;15.496;2023-05-10T07:14:14;5.30;;;1.80;;
25721;SDS011;13578;53.450;15.496;2023-05-10T07:17:14;3.85;;;1.25;;
25721;SDS011;13578;53.450;15.496;2023-05-10T07:20:15;3.70;;;1.52;;
25721;SDS011;13578;53.450;15.496;2023-05-10T07:23:16;3.42;;;1.25;;
25721;SDS011;13578;53.450;15.496;2023-05-10T07:26:17;4.95;;;1.60;;
25721;SDS011;13578;53.450;15.496;2023-05-10T07:29:18;5.25;;;1.27;;
25721;SDS011;13578;53.450;15.496;2023-05-10T07:32:19;3.03;;;1.38;;
25721;SDS011;13578;53.450;15.496;2023-05-10T07:35:19;4.35;;;1.52;;
25721;SDS011;13578;53.450;15.496;2023-05-10T07:38:20;5.47;;;1.35;;
25721;SDS011;13578;53.450;15.496;2023-05-10T07:41:20;2.88;;;1.20;;
25721;SDS011;13578;53.450;15.496;2023-05-10T07:44:22;1.60;;;0.90;;
25721;SDS011;13578;53.450;15.496;2023-05-10T07:47:23;8.88;;;1.08;;
25721;SDS011;13578;53.450;15.496;2023-05-10T07:50:24;2.67;;;1.40;;
25721;SDS011;13578;53.450;15.496;2023-05-10T07:53:25;8.82;;;1.50;;
25721;SDS011;13578;53.450;15.496;2023-05-10T07:56:27;2.33;;;1.00;;
25721;SDS011;13578;53.450;15.496;2023-05-10T07:59:29;4.07;;;1.23;;
25721;SDS011;13578;53.450;15.496;2023-05-10T08:02:30;4.65;;;1.50;;
25721;SDS011;13578;53.450;15.496;2023-05-10T08:05:31;1.45;;;0.65;;
25721;SDS011;13578;53.450;15.496;2023-05-10T08:08:31;1.70;;;0.70;;
25721;SDS011;13578;53.450;15.496;2023-05-10T08:11:32;2.60;;;1.02;;
25721;SDS011;13578;53.450;15.496;2023-05-10T08:14:32;2.03;;;1.00;;
25721;SDS011;13578;53.450;15.496;2023-05-10T08:17:33;1.65;;;0.95;;
25721;SDS011;13578;53.450;15.496;2023-05-10T08:20:34;2.10;;;1.10;;
25721;SDS011;13578;53.450;15.496;2023-05-10T08:23:35;1.77;;;0.82;;
25721;SDS011;13578;53.450;15.496;2023-05-10T08:26:35;1.77;;;0.70;;
25721;SDS011;13578;53.450;15.496;2023-05-10T08:29:37;2.00;;;0.70;;
25721;SDS011;13578;53.450;15.496;2023-05-10T08:32:37;8.10;;;0.70;;
25721;SDS011;13578;53.450;15.496;2023-05-10T08:35:38;2.80;;;0.98;;
25721;SDS011;13578;53.450;15.496;2023-05-10T08:38:39;2.55;;;0.88;;
25721;SDS011;13578;53.450;15.496;2023-05-10T08:41:39;1.92;;;0.73;;
25721;SDS011;13578;53.450;15.496;2023-05-10T08:44:43;2.60;;;0.95;;
25721;SDS011;13578;53.450;15.496;2023-05-10T08:47:47;2.25;;;0.77;;
25721;SDS011;13578;53.450;15.496;2023-05-10T08:50:48;4.00;;;0.80;;
25721;SDS011;13578;53.450;15.496;2023-05-10T08:53:53;2.00;;;0.50;;
25721;SDS011;13578;53.450;15.496;2023-05-10T08:56:54;1.33;;;0.80;;
25721;SDS011;13578;53.450;15.496;2023-05-10T08:59:55;4.20;;;0.60;;
25721;SDS011;13578;53.450;15.496;2023-05-10T09:02:55;7.00;;;0.90;;
25721;SDS011;13578;53.450;15.496;2023-05-10T09:05:58;1.20;;;0.40;;
25721;SDS011;13578;53.450;15.496;2023-05-10T09:08:58;3.00;;;0.60;;
25721;SDS011;13578;53.450;15.496;2023-05-10T09:12:00;2.53;;;0.70;;
25721;SDS011;13578;53.450;15.496;2023-05-10T09:15:01;1.40;;;0.65;;
25721;SDS011;13578;53.450;15.496;2023-05-10T09:18:02;2.63;;;0.80;;
25721;SDS011;13578;53.450;15.496;2023-05-10T09:21:03;2.03;;;0.70;;
25721;SDS011;13578;53.450;15.496;2023-05-10T09:24:04;8.13;;;0.88;;
25721;SDS011;13578;53.450;15.496;2023-05-10T09:27:06;1.92;;;0.63;;
25721;SDS011;13578;53.450;15.496;2023-05-10T09:30:07;2.13;;;0.63;;
25721;SDS011;13578;53.450;15.496;2023-05-10T09:33:08;1.88;;;0.43;;
25721;SDS011;13578;53.450;15.496;2023-05-10T09:36:09;5.55;;;0.50;;
25721;SDS011;13578;53.450;15.496;2023-05-10T09:39:11;1.98;;;0.90;;
25721;SDS011;13578;53.450;15.496;2023-05-10T09:42:12;2.08;;;0.70;;
25721;SDS011;13578;53.450;15.496;2023-05-10T09:45:12;10.10;;;0.90;;
25721;SDS011;13578;53.450;15.496;2023-05-10T09:48:13;14.05;;;1.67;;
25721;SDS011;13578;53.450;15.496;2023-05-10T09:51:20;2.35;;;0.60;;
25721;SDS011;13578;53.450;15.496;2023-05-10T09:54:21;2.45;;;0.50;;
25721;SDS011;13578;53.450;15.496;2023-05-10T09:57:24;2.95;;;0.63;;
25721;SDS011;13578;53.450;15.496;2023-05-10T10:00:25;4.88;;;0.90;;
25721;SDS011;13578;53.450;15.496;2023-05-10T10:03:27;6.20;;;0.98;;
25721;SDS011;13578;53.450;15.496;2023-05-10T10:06:34;2.88;;;0.80;;
25721;SDS011;13578;53.450;15.496;2023-05-10T10:09:36;1.95;;;0.80;;
25721;SDS011;13578;53.450;15.496;2023-05-10T10:12:39;3.25;;;0.70;;
25721;SDS011;13578;53.450;15.496;2023-05-10T10:15:40;3.28;;;1.10;;
25721;SDS011;13578;53.450;15.496;2023-05-10T10:18:42;1.92;;;0.73;;
25721;SDS011;13578;53.450;15.496;2023-05-10T10:21:43;1.77;;;0.50;;
25721;SDS011;13578;53.450;15.496;2023-05-10T10:24:44;2.85;;;0.50;;
25721;SDS011;13578;53.450;15.496;2023-05-10T10:30:51;1.75;;;0.55;;
25721;SDS011;13578;53.450;15.496;2023-05-10T10:33:56;2.72;;;0.40;;
25721;SDS011;13578;53.450;15.496;2023-05-10T10:37:05;10.73;;;1.05;;
25721;SDS011;13578;53.450;15.496;2023-05-10T10:43:27;1.38;;;0.35;;
25721;SDS011;13578;53.450;15.496;2023-05-10T10:46:28;4.55;;;0.70;;
25721;SDS011;13578;53.450;15.496;2023-05-10T10:49:33;2.05;;;0.30;;
25721;SDS011;13578;53.450;15.496;2023-05-10T10:52:39;3.78;;;0.68;;
25721;SDS011;13578;53.450;15.496;2023-05-10T10:55:47;3.33;;;0.45;;
25721;SDS011;13578;53.450;15.496;2023-05-10T10:58:51;1.33;;;0.38;;
25721;SDS011;13578;53.450;15.496;2023-05-10T11:01:53;1.77;;;0.40;;
25721;SDS011;13578;53.450;15.496;2023-05-10T11:04:54;2.63;;;0.22;;
25721;SDS011;13578;53.450;15.496;2023-05-10T11:07:55;10.23;;;2.25;;
25721;SDS011;13578;53.450;15.496;2023-05-10T11:14:04;3.53;;;0.20;;
25721;SDS011;13578;53.450;15.496;2023-05-10T11:17:24;4.65;;;0.45;;
25721;SDS011;13578;53.450;15.496;2023-05-10T11:20:28;1.85;;;0.40;;
25721;SDS011;13578;53.450;15.496;2023-05-10T11:26:40;1.95;;;0.68;;
25721;SDS011;13578;53.450;15.496;2023-05-10T11:29:40;5.47;;;1.05;;
25721;SDS011;13578;53.450;15.496;2023-05-10T11:32:43;1.15;;;0.50;;
25721;SDS011;13578;53.450;15.496;2023-05-10T11:35:44;6.03;;;0.80;;
25721;SDS011;13578;53.450;15.496;2023-05-10T11:38:46;1.50;;;0.45;;
25721;SDS011;13578;53.450;15.496;2023-05-10T11:41:48;2.88;;;0.40;;
25721;SDS011;13578;53.450;15.496;2023-05-10T11:44:49;4.38;;;0.77;;
25721;SDS011;13578;53.450;15.496;2023-05-10T11:47:50;2.00;;;0.40;;
25721;SDS011;13578;53.450;15.496;2023-05-10T11:50:51;2.28;;;0.75;;
25721;SDS011;13578;53.450;15.496;2023-05-10T11:53:54;10.55;;;0.93;;
25721;SDS011;13578;53.450;15.496;2023-05-10T11:56:56;1.73;;;0.50;;
25721;SDS011;13578;53.450;15.496;2023-05-10T11:59:57;1.67;;;0.60;;
25721;SDS011;13578;53.450;15.496;2023-05-10T12:03:00;0.82;;;0.40;;
25721;SDS011;13578;53.450;15.496;2023-05-10T12:06:01;0.77;;;0.30;;
25721;SDS011;13578;53.450;15.496;2023-05-10T12:09:06;3.80;;;0.52;;
25721;SDS011;13578;53.450;15.496;2023-05-10T12:12:08;3.33;;;0.50;;
25721;SDS011;13578;53.450;15.496;2023-05-10T12:15:12;3.67;;;0.65;;
25721;SDS011;13578;53.450;15.496;2023-05-10T12:21:25;6.05;;;0.60;;
25721;SDS011;13578;53.450;15.496;2023-05-10T12:24:27;1.90;;;0.60;;
25721;SDS011;13578;53.450;15.496;2023-05-10T12:27:31;2.58;;;0.52;;
25721;SDS011;13578;53.450;15.496;2023-05-10T12:30:33;2.90;;;0.55;;
25721;SDS011;13578;53.450;15.496;2023-05-10T12:36:39;4.50;;;0.50;;
25721;SDS011;13578;53.450;15.496;2023-05-10T12:39:43;3.00;;;0.50;;
25721;SDS011;13578;53.450;15.496;2023-05-10T12:42:44;5.77;;;1.23;;
25721;SDS011;13578;53.450;15.496;2023-05-10T12:45:45;1.83;;;0.45;;
25721;SDS011;13578;53.450;15.496;2023-05-10T12:48:48;2.03;;;0.70;;
25721;SDS011;13578;53.450;15.496;2023-05-10T12:51:54;1.02;;;0.45;;
25721;SDS011;13578;53.450;15.496;2023-05-10T12:54:55;5.63;;;0.50;;
25721;SDS011;13578;53.450;15.496;2023-05-10T12:57:56;1.42;;;0.55;;
25721;SDS011;13578;53.450;15.496;2023-05-10T13:00:57;1.13;;;0.40;;
25721;SDS011;13578;53.450;15.496;2023-05-10T13:03:58;3.20;;;0.90;;
25721;SDS011;13578;53.450;15.496;2023-05-10T13:07:00;1.15;;;0.70;;
25721;SDS011;13578;53.450;15.496;2023-05-10T13:10:00;1.30;;;0.52;;
25721;SDS011;13578;53.450;15.496;2023-05-10T13:13:01;1.42;;;0.52;;
25721;SDS011;13578;53.450;15.496;2023-05-10T13:16:02;3.25;;;0.57;;
25721;SDS011;13578;53.450;15.496;2023-05-10T13:19:03;2.30;;;0.52;;
25721;SDS011;13578;53.450;15.496;2023-05-10T13:22:04;2.58;;;0.60;;
25721;SDS011;13578;53.450;15.496;2023-05-10T13:25:04;0.85;;;0.30;;
25721;SDS011;13578;53.450;15.496;2023-05-10T13:28:05;2.80;;;0.43;;
25721;SDS011;13578;53.450;15.496;2023-05-10T13:31:06;2.20;;;0.40;;
25721;SDS011;13578;53.450;15.496;2023-05-10T13:34:07;1.27;;;0.47;;
25721;SDS011;13578;53.450;15.496;2023-05-10T13:37:08;2.05;;;0.73;;
25721;SDS011;13578;53.450;15.496;2023-05-10T13:40:09;9.73;;;1.17;;
25721;SDS011;13578;53.450;15.496;2023-05-10T13:43:10;3.83;;;1.20;;
25721;SDS011;13578;53.450;15.496;2023-05-10T13:46:10;1.45;;;0.50;;
25721;SDS011;13578;53.450;15.496;2023-05-10T13:49:11;4.70;;;0.75;;
25721;SDS011;13578;53.450;15.496;2023-05-10T13:52:12;7.43;;;0.65;;
25721;SDS011;13578;53.450;15.496;2023-05-10T13:55:13;1.10;;;0.50;;
25721;SDS011;13578;53.450;15.496;2023-05-10T13:58:14;3.78;;;0.50;;
25721;SDS011;13578;53.450;15.496;2023-05-10T14:01:15;1.17;;;0.40;;
25721;SDS011;13578;53.450;15.496;2023-05-10T14:04:15;3.22;;;0.63;;
25721;SDS011;13578;53.450;15.496;2023-05-10T14:07:16;1.80;;;0.50;;
25721;SDS011;13578;53.450;15.496;2023-05-10T14:10:17;1.38;;;0.50;;
25721;SDS011;13578;53.450;15.496;2023-05-10T14:13:18;1.02;;;0.60;;
25721;SDS011;13578;53.450;15.496;2023-05-10T14:16:19;3.38;;;0.50;;
25721;SDS011;13578;53.450;15.496;2023-05-10T14:19:20;1.80;;;0.68;;
25721;SDS011;13578;53.450;15.496;2023-05-10T14:22:20;8.57;;;0.77;;
25721;SDS011;13578;53.450;15.496;2023-05-10T14:25:22;3.47;;;0.60;;
25721;SDS011;13578;53.450;15.496;2023-05-10T14:28:23;1.23;;;0.50;;
25721;SDS011;13578;53.450;15.496;2023-05-10T14:31:25;1.27;;;0.60;;
25721;SDS011;13578;53.450;15.496;2023-05-10T14:34:25;1.00;;;0.60;;
25721;SDS011;13578;53.450;15.496;2023-05-10T14:37:26;3.38;;;0.50;;
25721;SDS011;13578;53.450;15.496;2023-05-10T14:40:27;2.38;;;0.40;;
25721;SDS011;13578;53.450;15.496;2023-05-10T14:43:28;3.75;;;0.47;;
25721;SDS011;13578;53.450;15.496;2023-05-10T14:46:30;6.32;;;0.70;;
25721;SDS011;13578;53.450;15.496;2023-05-10T14:49:31;6.32;;;0.88;;
25721;SDS011;13578;53.450;15.496;2023-05-10T14:52:31;4.65;;;0.55;;
25721;SDS011;13578;53.450;15.496;2023-05-10T14:55:32;4.45;;;0.73;;
25721;SDS011;13578;53.450;15.496;2023-05-10T14:58:32;0.85;;;0.50;;
25721;SDS011;13578;53.450;15.496;2023-05-10T15:01:33;4.18;;;0.75;;
25721;SDS011;13578;53.450;15.496;2023-05-10T15:04:37;4.35;;;0.68;;
25721;SDS011;13578;53.450;15.496;2023-05-10T15:07:38;1.75;;;0.60;;
25721;SDS011;13578;53.450;15.496;2023-05-10T15:10:39;2.70;;;0.70;;
25721;SDS011;13578;53.450;15.496;2023-05-10T15:13:39;1.55;;;0.65;;
25721;SDS011;13578;53.450;15.496;2023-05-10T15:16:40;2.75;;;0.93;;
25721;SDS011;13578;53.450;15.496;2023-05-10T15:19:41;8.95;;;0.95;;
25721;SDS011;13578;53.450;15.496;2023-05-10T15:22:42;3.13;;;0.77;;
25721;SDS011;13578;53.450;15.496;2023-05-10T15:25:43;4.43;;;0.70;;
25721;SDS011;13578;53.450;15.496;2023-05-10T15:28:43;4.03;;;0.47;;
25721;SDS011;13578;53.450;15.496;2023-05-10T15:31:44;2.08;;;0.57;;
25721;SDS011;13578;53.450;15.496;2023-05-10T15:34:48;4.53;;;0.82;;
25721;SDS011;13578;53.450;15.496;2023-05-10T15:37:49;2.20;;;0.70;;
25721;SDS011;13578;53.450;15.496;2023-05-10T15:40:49;4.78;;;0.98;;
25721;SDS011;13578;53.450;15.496;2023-05-10T15:43:50;1.17;;;0.43;;
25721;SDS011;13578;53.450;15.496;2023-05-10T15:46:50;3.08;;;1.08;;
25721;SDS011;13578;53.450;15.496;2023-05-10T15:49:51;2.95;;;0.70;;
25721;SDS011;13578;53.450;15.496;2023-05-10T15:52:52;1.95;;;0.77;;
25721;SDS011;13578;53.450;15.496;2023-05-10T15:55:53;2.53;;;0.60;;
25721;SDS011;13578;53.450;15.496;2023-05-10T15:58:54;1.23;;;0.40;;
25721;SDS011;13578;53.450;15.496;2023-05-10T16:01:55;4.07;;;0.75;;
25721;SDS011;13578;53.450;15.496;2023-05-10T16:04:56;2.88;;;0.60;;
25721;SDS011;13578;53.450;15.496;2023-05-10T16:07:57;1.25;;;0.47;;
25721;SDS011;13578;53.450;15.496;2023-05-10T16:10:58;1.05;;;0.50;;
25721;SDS011;13578;53.450;15.496;2023-05-10T16:13:59;0.90;;;0.60;;
25721;SDS011;13578;53.450;15.496;2023-05-10T16:17:00;5.13;;;1.30;;
25721;SDS011;13578;53.450;15.496;2023-05-10T16:20:00;1.95;;;0.60;;
25721;SDS011;13578;53.450;15.496;2023-05-10T16:23:05;3.05;;;0.60;;
25721;SDS011;13578;53.450;15.496;2023-05-10T16:26:06;5.97;;;1.23;;
25721;SDS011;13578;53.450;15.496;2023-05-10T16:29:08;1.35;;;0.60;;
25721;SDS011;13578;53.450;15.496;2023-05-10T16:32:09;3.53;;;0.73;;
25721;SDS011;13578;53.450;15.496;2023-05-10T16:35:10;1.92;;;0.60;;
25721;SDS011;13578;53.450;15.496;2023-05-10T16:38:10;1.40;;;0.50;;
25721;SDS011;13578;53.450;15.496;2023-05-10T16:41:11;5.47;;;1.10;;
25721;SDS011;13578;53.450;15.496;2023-05-10T16:44:12;7.15;;;0.52;;
25721;SDS011;13578;53.450;15.496;2023-05-10T16:47:13;2.88;;;1.00;;
25721;SDS011;13578;53.450;15.496;2023-05-10T16:50:13;1.58;;;0.60;;
25721;SDS011;13578;53.450;15.496;2023-05-10T16:53:14;2.25;;;0.68;;
25721;SDS011;13578;53.450;15.496;2023-05-10T16:56:15;2.53;;;1.10;;
25721;SDS011;13578;53.450;15.496;2023-05-10T16:59:20;3.13;;;0.75;;
25721;SDS011;13578;53.450;15.496;2023-05-10T17:02:21;1.90;;;0.70;;
25721;SDS011;13578;53.450;15.496;2023-05-10T17:05:22;1.92;;;0.70;;
25721;SDS011;13578;53.450;15.496;2023-05-10T17:08:23;2.03;;;0.90;;
25721;SDS011;13578;53.450;15.496;2023-05-10T17:11:24;2.75;;;0.80;;
25721;SDS011;13578;53.450;15.496;2023-05-10T17:14:24;3.22;;;0.60;;
25721;SDS011;13578;53.450;15.496;2023-05-10T17:17:25;1.98;;;0.65;;
25721;SDS011;13578;53.450;15.496;2023-05-10T17:20:26;1.65;;;0.80;;
25721;SDS011;13578;53.450;15.496;2023-05-10T17:23:26;4.45;;;0.77;;
25721;SDS011;13578;53.450;15.496;2023-05-10T17:26:27;3.15;;;1.00;;
25721;SDS011;13578;53.450;15.496;2023-05-10T17:29:29;4.40;;;0.68;;
25721;SDS011;13578;53.450;15.496;2023-05-10T17:32:31;0.88;;;0.50;;
25721;SDS011;13578;53.450;15.496;2023-05-10T17:35:31;2.40;;;0.82;;
25721;SDS011;13578;53.450;15.496;2023-05-10T17:38:32;3.38;;;1.08;;
25721;SDS011;13578;53.450;15.496;2023-05-10T17:41:32;2.05;;;0.80;;
25721;SDS011;13578;53.450;15.496;2023-05-10T17:44:33;5.75;;;0.80;;
25721;SDS011;13578;53.450;15.496;2023-05-10T17:47:34;1.58;;;0.82;;
25721;SDS011;13578;53.450;15.496;2023-05-10T17:50:34;1.88;;;0.63;;
25721;SDS011;13578;53.450;15.496;2023-05-10T17:53:35;3.15;;;0.80;;
25721;SDS011;13578;53.450;15.496;2023-05-10T17:56:35;1.70;;;0.90;;
25721;SDS011;13578;53.450;15.496;2023-05-10T17:59:36;2.65;;;0.70;;
25721;SDS011;13578;53.450;15.496;2023-05-10T18:02:37;1.98;;;0.77;;
25721;SDS011;13578;53.450;15.496;2023-05-10T18:05:37;3.88;;;0.93;;
25721;SDS011;13578;53.450;15.496;2023-05-10T18:08:38;2.30;;;0.68;;
25721;SDS011;13578;53.450;15.496;2023-05-10T18:11:39;4.82;;;0.93;;
25721;SDS011;13578;53.450;15.496;2023-05-10T18:14:39;5.97;;;1.00;;
25721;SDS011;13578;53.450;15.496;2023-05-10T18:17:40;3.05;;;0.70;;
25721;SDS011;13578;53.450;15.496;2023-05-10T18:20:40;4.80;;;0.95;;
25721;SDS011;13578;53.450;15.496;2023-05-10T18:23:41;0.90;;;0.50;;
25721;SDS011;13578;53.450;15.496;2023-05-10T18:26:42;1.42;;;0.63;;
25721;SDS011;13578;53.450;15.496;2023-05-10T18:29:43;1.40;;;0.65;;
25721;SDS011;13578;53.450;15.496;2023-05-10T18:32:44;1.70;;;0.90;;
25721;SDS011;13578;53.450;15.496;2023-05-10T18:35:44;2.30;;;0.95;;